createdAt,value
2022-11-16T00:00:40.069Z,21.43
2022-11-16T00:03:42.811Z,21.45
2022-11-16T00:06:46.408Z,21.44
2022-11-16T00:09:48.656Z,21.41
2022-11-16T00:12:50.831Z,21.43
2022-11-16T00:15:57.172Z,21.42
2022-11-16T00:19:03.365Z,21.44
2022-11-16T00:22:05.564Z,21.44
2022-11-16T00:25:08.171Z,21.43
2022-11-16T00:28:11.090Z,21.44
2022-11-16T00:31:13.861Z,21.43
2022-11-16T00:34:16.629Z,21.43
2022-11-16T00:37:18.944Z,21.43
2022-11-16T00:40:21.668Z,21.43
2022-11-16T00:43:24.845Z,21.37
2022-11-16T00:46:27.346Z,21.42
2022-11-16T00:49:29.645Z,21.40
2022-11-16T00:52:32.039Z,21.40
2022-11-16T00:55:34.991Z,21.41
2022-11-16T00:58:38.534Z,21.39
2022-11-16T01:01:43.759Z,21.41
2022-11-16T01:04:46.268Z,21.40
2022-11-16T01:07:49.261Z,21.37
2022-11-16T01:10:51.464Z,21.41
2022-11-16T01:13:54.118Z,21.41
2022-11-16T01:16:56.303Z,21.33
2022-11-16T01:19:58.500Z,21.40
2022-11-16T01:23:00.710Z,21.35
2022-11-16T01:26:02.985Z,21.39
2022-11-16T01:29:09.020Z,21.35
2022-11-16T01:32:15.881Z,21.37
2022-11-16T01:35:19.302Z,21.37
2022-11-16T01:38:27.129Z,21.36
2022-11-16T01:41:33.175Z,21.29
2022-11-16T01:44:39.177Z,21.36
2022-11-16T01:47:46.709Z,21.32
2022-11-16T01:50:54.587Z,21.31
2022-11-16T01:53:58.442Z,21.33
2022-11-16T01:57:04.606Z,21.31
2022-11-16T02:00:14.517Z,21.35
2022-11-16T02:03:22.700Z,21.34
2022-11-16T02:06:27.648Z,21.34
2022-11-16T02:10:17.019Z,21.35
2022-11-16T02:13:34.831Z,21.35
2022-11-16T02:16:51.771Z,21.28
2022-11-16T02:20:33.289Z,21.34
2022-11-16T02:24:00.543Z,21.33
2022-11-16T02:27:56.578Z,21.34
2022-11-16T02:31:02.995Z,21.32
2022-11-16T02:34:10.280Z,21.34
2022-11-16T02:37:17.523Z,21.31
2022-11-16T02:40:23.876Z,21.30
2022-11-16T02:43:34.160Z,21.32
2022-11-16T02:46:39.330Z,21.33
2022-11-16T02:49:49.196Z,21.29
2022-11-16T02:52:51.448Z,21.26
2022-11-16T02:55:53.712Z,21.31
2022-11-16T02:58:59.368Z,21.32
2022-11-16T03:02:35.579Z,21.31
2022-11-16T03:05:40.683Z,21.25
2022-11-16T03:09:05.914Z,21.28
2022-11-16T03:12:11.843Z,21.30
2022-11-16T03:15:14.218Z,21.32
2022-11-16T03:18:18.868Z,21.27
2022-11-16T03:21:36.553Z,21.31
2022-11-16T03:24:39.205Z,21.32
2022-11-16T03:27:48.312Z,21.32
2022-11-16T03:30:57.671Z,21.31
2022-11-16T03:34:08.974Z,21.30
2022-11-16T03:37:12.679Z,21.29
2022-11-16T03:40:18.314Z,21.30
2022-11-16T03:43:21.243Z,21.29
2022-11-16T03:46:24.653Z,21.28
2022-11-16T03:49:30.725Z,21.24
2022-11-16T03:52:33.764Z,21.27
2022-11-16T03:55:36.285Z,21.21
2022-11-16T03:58:38.815Z,21.28
2022-11-16T04:01:44.678Z,21.30
2022-11-16T04:05:07.180Z,21.30
2022-11-16T04:08:33.871Z,21.29
2022-11-16T04:11:55.776Z,21.23
2022-11-16T04:15:16.797Z,21.28
2022-11-16T04:18:37.449Z,21.29
2022-11-16T04:22:05.007Z,21.29
2022-11-16T04:25:30.779Z,21.27
2022-11-16T04:28:35.313Z,21.25
2022-11-16T04:31:58.707Z,21.28
2022-11-16T04:35:19.803Z,21.23
2022-11-16T04:38:22.267Z,21.28
2022-11-16T04:41:43.229Z,21.28
2022-11-16T04:45:04.505Z,21.28
2022-11-16T04:48:14.300Z,21.27
2022-11-16T04:51:16.603Z,21.25
2022-11-16T04:54:19.188Z,21.22
2022-11-16T04:57:21.379Z,21.19
2022-11-16T05:00:25.599Z,21.27
2022-11-16T05:03:28.005Z,21.25
2022-11-16T05:06:31.116Z,21.27
2022-11-16T05:09:33.295Z,21.24
2022-11-16T05:12:35.872Z,21.24
2022-11-16T05:15:40.683Z,21.24
2022-11-16T05:18:43.019Z,21.27
2022-11-16T05:21:47.228Z,21.25
2022-11-16T05:24:49.564Z,21.20
2022-11-16T05:27:51.814Z,21.26
2022-11-16T05:30:54.086Z,21.26
2022-11-16T05:38:42.612Z,21.25
2022-11-16T05:41:51.678Z,21.24
2022-11-16T05:44:54.087Z,21.22
2022-11-16T05:47:56.318Z,21.22
2022-11-16T05:51:02.004Z,21.19
2022-11-16T05:54:41.081Z,21.25
2022-11-16T05:57:43.303Z,21.25
2022-11-16T06:00:53.315Z,21.26
2022-11-16T06:03:55.955Z,21.24
2022-11-16T06:06:58.922Z,21.21
2022-11-16T06:10:15.007Z,21.25
2022-11-16T06:13:19.737Z,21.18
2022-11-16T06:16:22.630Z,21.19
2022-11-16T06:19:29.579Z,21.23
2022-11-16T06:22:34.506Z,21.20
2022-11-16T06:25:39.769Z,21.17
2022-11-16T06:28:42.577Z,21.22
2022-11-16T06:31:44.800Z,21.21
2022-11-16T06:34:47.718Z,21.25
2022-11-16T06:37:50.341Z,21.26
2022-11-16T06:40:54.791Z,21.26
2022-11-16T06:43:59.221Z,21.26
2022-11-16T06:47:06.608Z,21.26
2022-11-16T06:50:11.005Z,21.21
2022-11-16T06:53:14.217Z,21.30
2022-11-16T06:56:17.352Z,21.25
2022-11-16T06:59:25.173Z,21.25
2022-11-16T07:02:30.669Z,21.27
2022-11-16T07:05:35.008Z,21.34
2022-11-16T07:08:37.602Z,21.33
2022-11-16T07:11:39.813Z,21.40
2022-11-16T07:14:46.414Z,21.35
2022-11-16T07:17:49.865Z,21.46
2022-11-16T07:20:53.738Z,21.42
2022-11-16T07:24:06.388Z,21.41
2022-11-16T07:27:09.329Z,21.37
2022-11-16T07:30:16.758Z,21.39
2022-11-16T07:33:26.870Z,21.40
2022-11-16T07:36:49.386Z,21.38
2022-11-16T07:39:52.786Z,21.37
2022-11-16T07:42:58.637Z,21.41
2022-11-16T07:51:32.407Z,21.49
2022-11-16T07:54:57.521Z,21.44
2022-11-16T07:58:02.131Z,21.46
2022-11-16T08:01:08.415Z,21.47
2022-11-16T08:04:10.946Z,21.44
2022-11-16T08:07:14.665Z,21.52
2022-11-16T08:10:23.997Z,21.48
2022-11-16T08:13:26.954Z,21.57
2022-11-16T08:16:29.476Z,21.53
2022-11-16T08:19:42.355Z,21.58
2022-11-16T08:28:17.783Z,21.23
2022-11-16T08:31:57.442Z,21.53
2022-11-16T08:34:58.662Z,21.56
2022-11-16T08:38:01.616Z,21.53
2022-11-16T08:41:04.308Z,21.53
2022-11-16T08:44:07.052Z,21.55
2022-11-16T08:47:15.232Z,21.52
2022-11-16T08:55:54.908Z,21.41
2022-11-16T08:58:59.435Z,21.53
2022-11-16T09:02:03.446Z,21.53
2022-11-16T09:05:06.384Z,21.60
2022-11-16T09:08:08.688Z,21.64
2022-11-16T09:11:14.015Z,21.67
2022-11-16T09:14:16.241Z,21.70
2022-11-16T09:17:22.942Z,21.69
2022-11-16T09:20:26.461Z,21.67
2022-11-16T09:23:31.820Z,21.68
2022-11-16T09:27:07.167Z,21.73
2022-11-16T09:30:10.142Z,21.76
2022-11-16T09:33:13.434Z,21.77
2022-11-16T09:36:16.067Z,21.80
2022-11-16T09:39:30.660Z,21.83
2022-11-16T09:42:49.663Z,21.84
2022-11-16T09:45:57.801Z,21.88
2022-11-16T09:49:07.945Z,21.89
2022-11-16T09:52:36.515Z,21.85
2022-11-16T09:55:48.789Z,21.81
2022-11-16T09:59:13.566Z,21.87
2022-11-16T10:02:59.950Z,21.82
2022-11-16T10:06:47.504Z,21.88
2022-11-16T10:09:50.208Z,21.88
2022-11-16T10:13:10.215Z,21.91
2022-11-16T10:16:34.931Z,21.94
2022-11-16T10:20:01.151Z,21.92
2022-11-16T10:23:39.388Z,21.93
2022-11-16T10:35:56.070Z,21.97
2022-11-16T10:39:00.489Z,21.93
2022-11-16T10:42:12.462Z,21.95
2022-11-16T10:45:38.401Z,21.99
2022-11-16T10:49:16.426Z,22.03
2022-11-16T10:52:18.728Z,22.05
2022-11-16T10:55:22.557Z,22.04
2022-11-16T10:58:24.772Z,22.01
2022-11-16T11:01:33.678Z,21.99
2022-11-16T11:09:42.250Z,21.95
2022-11-16T11:18:26.098Z,21.99
2022-11-16T11:30:21.141Z,21.85
2022-11-16T11:34:48.573Z,22.07
2022-11-16T11:37:54.533Z,22.06
2022-11-16T11:42:04.248Z,22.09
2022-11-16T11:46:59.748Z,22.10
2022-11-16T12:01:58.204Z,22.10
2022-11-16T12:05:20.283Z,22.10
2022-11-16T12:09:07.747Z,22.10
2022-11-16T12:12:35.620Z,22.09
2022-11-16T12:15:46.815Z,22.12
2022-11-16T12:18:57.937Z,22.16
2022-11-16T12:22:41.067Z,22.17
2022-11-16T12:26:23.340Z,22.19
2022-11-16T12:30:34.908Z,22.18
2022-11-16T12:34:12.120Z,22.10
2022-11-16T12:42:22.861Z,22.15
2022-11-16T12:45:47.717Z,22.15
2022-11-16T12:48:49.987Z,22.17
2022-11-16T12:52:33.802Z,22.15
2022-11-16T12:56:00.346Z,22.13
2022-11-16T12:59:21.112Z,22.12
2022-11-16T13:02:49.610Z,22.10
2022-11-16T13:05:57.784Z,22.10
2022-11-16T13:09:06.183Z,22.11
2022-11-16T13:12:17.058Z,22.14
2022-11-16T13:16:03.129Z,22.15
2022-11-16T13:19:10.391Z,22.07
2022-11-16T13:22:22.015Z,21.94
2022-11-16T13:25:40.565Z,21.95
2022-11-16T13:28:59.912Z,21.92
2022-11-16T13:32:22.791Z,21.93
2022-11-16T13:35:25.811Z,21.92
2022-11-16T13:38:52.205Z,21.90
2022-11-16T13:42:13.217Z,21.90
2022-11-16T13:45:17.062Z,21.90
2022-11-16T13:48:24.977Z,21.88
2022-11-16T13:51:27.286Z,21.90
2022-11-16T13:54:46.015Z,21.88
2022-11-16T13:57:55.574Z,21.90
2022-11-16T14:01:11.027Z,21.88
2022-11-16T14:04:41.886Z,21.91
2022-11-16T14:07:49.808Z,21.93
2022-11-16T14:10:52.157Z,21.95
2022-11-16T14:13:54.797Z,21.97
2022-11-16T14:16:57.025Z,21.92
2022-11-16T14:19:59.355Z,21.86
2022-11-16T14:23:22.479Z,21.82
2022-11-16T14:27:10.688Z,21.79
2022-11-16T14:30:30.117Z,21.74
2022-11-16T14:33:36.025Z,21.73
2022-11-16T14:36:44.408Z,21.67
2022-11-16T14:39:46.729Z,21.68
2022-11-16T14:43:15.912Z,21.69
2022-11-16T14:46:27.991Z,21.70
2022-11-16T14:49:34.323Z,21.67
2022-11-16T14:52:47.552Z,21.67
2022-11-16T14:55:49.867Z,21.70
2022-11-16T14:58:56.853Z,21.68
2022-11-16T15:02:05.025Z,21.67
2022-11-16T15:05:07.760Z,21.69
2022-11-16T15:08:22.162Z,21.74
2022-11-16T15:11:50.140Z,21.74
2022-11-16T15:14:54.754Z,21.84
2022-11-16T15:17:59.906Z,21.83
2022-11-16T15:21:02.163Z,21.83
2022-11-16T15:27:41.535Z,21.76
2022-11-16T15:30:48.424Z,21.72
2022-11-16T15:33:50.791Z,21.70
2022-11-16T15:36:53.051Z,21.68
2022-11-16T15:39:57.421Z,21.63
2022-11-16T15:43:01.612Z,21.62
2022-11-16T15:46:05.930Z,21.63
2022-11-16T15:49:30.518Z,21.62
2022-11-16T15:52:47.310Z,21.59
2022-11-16T15:55:50.130Z,21.56
2022-11-16T15:58:58.641Z,21.58
2022-11-16T16:02:00.935Z,21.57
2022-11-16T16:05:03.305Z,21.52
2022-11-16T16:08:07.221Z,21.54
2022-11-16T16:11:27.462Z,21.51
2022-11-16T16:14:31.255Z,21.52
2022-11-16T16:17:33.510Z,21.50
2022-11-16T16:20:36.020Z,21.49
2022-11-16T16:23:50.627Z,21.48
2022-11-16T16:26:52.811Z,21.48
2022-11-16T16:29:57.338Z,21.48
2022-11-16T16:32:59.542Z,21.43
2022-11-16T16:36:02.235Z,21.44
2022-11-16T16:39:04.494Z,21.45
2022-11-16T16:42:10.823Z,21.45
2022-11-16T16:45:18.528Z,21.41
2022-11-16T16:48:20.810Z,21.44
2022-11-16T16:51:22.994Z,21.43
2022-11-16T16:54:25.573Z,21.42
2022-11-16T16:57:27.813Z,21.37
2022-11-16T17:00:30.673Z,21.37
2022-11-16T17:03:33.218Z,21.37
2022-11-16T17:06:36.014Z,21.38
2022-11-16T17:09:38.257Z,21.39
2022-11-16T17:12:40.588Z,21.36
2022-11-16T17:15:42.815Z,21.35
2022-11-16T17:18:45.436Z,21.36
2022-11-16T17:21:47.789Z,21.34
2022-11-16T17:24:50.320Z,21.34
2022-11-16T17:27:52.497Z,21.33
2022-11-16T17:30:54.657Z,21.32
2022-11-16T17:33:59.820Z,21.31
2022-11-16T17:37:02.040Z,21.32
2022-11-16T17:40:04.727Z,21.32
2022-11-16T17:43:06.909Z,21.30
2022-11-16T17:46:17.425Z,21.28
2022-11-16T17:49:19.640Z,21.28
2022-11-16T17:52:21.857Z,21.25
2022-11-16T17:55:24.101Z,21.26
2022-11-16T17:58:28.036Z,21.27
2022-11-16T18:01:30.431Z,21.26
2022-11-16T18:04:32.685Z,21.26
2022-11-16T18:07:36.187Z,21.24
2022-11-16T18:10:38.771Z,21.25
2022-11-16T18:13:43.538Z,21.23
2022-11-16T18:16:47.907Z,21.23
2022-11-16T18:19:50.184Z,21.21
2022-11-16T18:22:52.424Z,21.21
2022-11-16T18:25:55.711Z,21.16
2022-11-16T18:28:57.944Z,21.17
2022-11-16T18:32:00.636Z,21.18
2022-11-16T18:35:04.729Z,21.18
2022-11-16T18:38:08.186Z,21.16
2022-11-16T18:41:13.470Z,21.17
2022-11-16T18:44:15.706Z,21.12
2022-11-16T18:47:17.904Z,21.16
2022-11-16T18:50:26.481Z,21.16
2022-11-16T18:53:30.669Z,21.15
2022-11-16T18:56:34.843Z,21.15
2022-11-16T18:59:37.107Z,21.14
2022-11-16T19:02:39.326Z,21.13
2022-11-16T19:05:42.083Z,21.10
2022-11-16T19:08:47.837Z,21.13
2022-11-16T19:11:54.345Z,21.11
2022-11-16T19:14:56.564Z,21.10
2022-11-16T19:18:19.846Z,21.10
2022-11-16T19:21:24.426Z,21.09
2022-11-16T19:24:26.663Z,21.09
2022-11-16T19:27:29.801Z,21.07
2022-11-16T19:30:32.084Z,21.04
2022-11-16T19:33:34.814Z,21.06
2022-11-16T19:36:37.545Z,21.01
2022-11-16T19:39:39.995Z,21.06
2022-11-16T19:42:42.935Z,21.01
2022-11-16T19:45:45.221Z,21.02
2022-11-16T19:48:49.352Z,20.99
2022-11-16T19:51:52.164Z,21.03
2022-11-16T19:54:54.486Z,21.00
2022-11-16T19:57:56.657Z,20.97
2022-11-16T20:01:06.953Z,21.00
2022-11-16T20:04:09.412Z,21.00
2022-11-16T20:07:13.485Z,20.98
2022-11-16T20:10:16.420Z,20.95
2022-11-16T20:13:18.636Z,20.95
2022-11-16T20:16:23.447Z,20.96
2022-11-16T20:19:25.693Z,20.93
2022-11-16T20:22:27.895Z,20.96
2022-11-16T20:25:30.151Z,20.94
2022-11-16T20:28:40.731Z,20.93
2022-11-16T20:31:45.318Z,20.94
2022-11-16T20:34:47.539Z,20.92
2022-11-16T20:37:49.744Z,20.91
2022-11-16T20:40:52.008Z,20.93
2022-11-16T20:43:56.653Z,20.93
2022-11-16T20:46:58.924Z,20.91
2022-11-16T20:50:03.154Z,20.91
2022-11-16T20:53:05.343Z,20.91
2022-11-16T20:56:07.817Z,20.89
2022-11-16T20:59:10.017Z,20.91
2022-11-16T21:02:12.501Z,20.90
2022-11-16T21:05:14.842Z,20.90
2022-11-16T21:08:17.183Z,20.89
2022-11-16T21:11:30.492Z,20.84
2022-11-16T21:14:32.798Z,20.88
2022-11-16T21:17:36.223Z,20.86
2022-11-16T21:20:38.524Z,20.86
2022-11-16T21:23:51.409Z,20.87
2022-11-16T21:26:53.638Z,20.86
2022-11-16T21:29:55.900Z,20.83
2022-11-16T21:32:58.054Z,20.85
2022-11-16T21:36:05.501Z,20.78
2022-11-16T21:39:08.114Z,20.81
2022-11-16T21:42:10.523Z,20.82
2022-11-16T21:45:12.747Z,20.85
2022-11-16T21:48:15.275Z,20.85
2022-11-16T21:51:18.942Z,20.83
2022-11-16T21:54:21.122Z,20.80
2022-11-16T21:57:23.413Z,20.81
2022-11-16T22:00:26.989Z,20.80
2022-11-16T22:03:30.997Z,20.80
2022-11-16T22:06:51.628Z,20.78
2022-11-16T22:09:53.865Z,20.80
2022-11-16T22:12:56.068Z,20.79
2022-11-16T22:15:58.532Z,20.79
2022-11-16T22:19:00.752Z,20.80
2022-11-16T22:22:03.350Z,20.78
2022-11-16T22:25:06.206Z,20.76
2022-11-16T22:28:20.631Z,20.77
2022-11-16T22:31:23.303Z,20.78
2022-11-16T22:34:25.549Z,20.75
2022-11-16T22:37:27.703Z,20.76
2022-11-16T22:40:30.140Z,20.74
2022-11-16T22:43:33.142Z,20.73
2022-11-16T22:46:35.620Z,20.75
2022-11-16T22:49:37.799Z,20.71
2022-11-16T22:52:39.959Z,20.73
2022-11-16T22:55:42.131Z,20.73
2022-11-16T22:58:44.345Z,20.72
2022-11-16T23:01:46.549Z,20.70
2022-11-16T23:04:48.764Z,20.70
2022-11-16T23:07:50.947Z,20.70
2022-11-16T23:11:29.227Z,20.70
2022-11-16T23:14:50.105Z,20.70
2022-11-16T23:17:52.303Z,20.68
2022-11-16T23:21:13.088Z,20.67
2022-11-16T23:24:34.429Z,20.65
2022-11-16T23:27:39.661Z,20.67
2022-11-16T23:30:43.081Z,20.64
2022-11-16T23:33:45.333Z,20.66
2022-11-16T23:36:47.520Z,20.65
2022-11-16T23:39:49.811Z,20.62
2022-11-16T23:43:14.453Z,20.65
2022-11-16T23:46:16.642Z,20.61
2022-11-16T23:49:18.797Z,20.64
2022-11-16T23:52:21.019Z,20.59
2022-11-16T23:55:23.505Z,20.63
2022-11-16T23:58:25.699Z,20.60
